Middleton, Massachusetts
Current Conditions -  °F | °C
As of 1:00 PM on Monday 26 Jan 2015 (Local Time) from KBVY Reporting Station
Light Snow Light Snow  
Wind Chill: 11°   Ceiling: 3300
Heat Index: 24°   Visibility: 2.5mi
Dew Point: 16°   Wind: 15mph
Humidity: 71%   Direction: 30°NNE
Pressure: 30.07"   Gusts: 21mph
Location:  42.6°N, 71.02°W
Report Text: KBVY 261800Z 03013G18KT 2 1/2SM -SN FEW019 OVC033 M04/M09 A3007 RMK AO2 P0000 T10441089
Loading
Personal Weather Stations






























Interactive Weather Map New forecast layout! Learn more

10-Day Weather Forecast

Advertisements
Track Severe Weather on mobile